Time;durP1;ratioP1;P1;durP2;ratioP2;P2;SDS_P1;SDS_P2;PMS_P1;PMS_P2;Temp;Humidity;BMP_temperature;BMP_pressure;BME280_temperature;BME280_humidity;BME280_pressure;Samples;Min_cycle;Max_cycle;Signal;HPM_P1;HPM_P2
2022/09/29 00:01:01;;;;;;;82.13;53.78;;;;;;;27.89;77.16;98114.00;4987978;28;20130;-72
2022/09/29 00:03:43;;;;;;;89.82;58.65;;;;;;;27.89;77.25;98115.97;4988523;28;20072;-74
2022/09/29 00:06:32;;;;;;;91.10;58.38;;;;;;;27.95;76.85;98113.78;4988644;28;20050;-74
2022/09/29 00:09:15;;;;;;;92.93;58.55;;;;;;;27.92;76.82;98123.56;4988249;28;20621;-74
2022/09/29 00:12:04;;;;;;;98.75;58.90;;;;;;;27.84;77.21;98133.53;4988759;28;20615;-75
2022/09/29 00:14:46;;;;;;;89.20;58.40;;;;;;;27.80;76.96;98138.13;4988458;28;20445;-71
2022/09/29 00:17:35;;;;;;;100.93;59.30;;;;;;;27.75;77.35;98134.78;4987707;28;20112;-72
2022/09/29 00:20:17;;;;;;;89.43;56.17;;;;;;;27.80;77.61;98143.63;4987783;28;20072;-71
2022/09/29 00:23:06;;;;;;;91.45;59.05;;;;;;;27.69;77.54;98137.75;4987904;28;20117;-73
2022/09/29 00:25:48;;;;;;;96.10;59.28;;;;;;;27.76;77.90;98148.19;4990604;28;20526;-71
2022/09/29 00:28:38;;;;;;;106.25;61.10;;;;;;;27.73;77.70;98146.13;4987412;28;20415;-74
2022/09/29 00:31:21;;;;;;;103.68;61.42;;;;;;;27.79;77.44;98153.03;4987009;28;20054;-74
2022/09/29 00:34:09;;;;;;;103.13;61.10;;;;;;;27.70;77.61;98144.84;4987979;28;20054;-74
2022/09/29 00:36:51;;;;;;;109.82;64.88;;;;;;;27.68;77.69;98157.38;4990673;28;20659;-72
2022/09/29 00:39:41;;;;;;;106.45;61.65;;;;;;;27.69;77.34;98159.78;4987701;28;20129;-73
2022/09/29 00:42:37;;;;;;;112.68;63.42;;;;;;;27.69;77.35;98164.50;4975355;28;20050;-72
2022/09/29 00:45:23;;;;;;;103.88;64.10;;;;;;;27.66;77.52;98168.72;4987304;28;20058;-71
2022/09/29 00:48:22;;;;;;;99.18;64.05;;;;;;;27.69;77.64;98170.03;4987994;28;20082;-72
2022/09/29 00:51:11;;;;;;;103.47;64.25;;;;;;;27.70;77.42;98177.13;5006286;28;20057;-71
2022/09/29 00:54:07;;;;;;;104.43;64.53;;;;;;;27.65;77.03;98180.91;4997653;28;20735;-71
2022/09/29 00:56:45;;;;;;;103.03;63.45;;;;;;;27.64;77.39;98179.28;4987985;28;20042;-71
2022/09/29 00:59:48;;;;;;;110.43;66.03;;;;;;;27.70;77.57;98185.41;4987601;28;20086;-73
2022/09/29 01:02:39;;;;;;;;;;;;;;;27.77;77.30;98185.66;4987977;28;20374;-73
2022/09/29 01:05:28;;;;;;;108.83;67.10;;;;;;;27.72;77.05;98188.63;4984209;28;19929;-74
2022/09/29 01:08:22;;;;;;;106.45;65.53;;;;;;;27.71;77.12;98198.06;4972328;28;20061;-73
2022/09/29 01:11:12;;;;;;;105.38;62.90;;;;;;;27.71;77.21;98187.03;4987027;28;20069;-73
2022/09/29 01:14:04;;;;;;;106.50;67.25;;;;;;;27.73;77.61;98195.75;4987556;28;20046;-73
2022/09/29 01:16:46;;;;;;;104.07;66.05;;;;;;;27.81;77.20;98200.38;4987161;28;20046;-73
2022/09/29 01:19:58;;;;;;;109.85;64.35;;;;;;;27.81;77.15;98205.09;4987172;28;20042;-73
2022/09/29 01:22:58;;;;;;;102.38;63.28;;;;;;;27.85;76.89;98204.06;4987181;28;20061;-73
2022/09/29 01:26:24;;;;;;;114.33;66.70;;;;;;;27.92;76.16;98212.59;4987002;28;20077;-72
2022/09/29 01:29:36;;;;;;;105.25;64.88;;;;;;;27.77;77.32;98210.47;4968495;28;20047;-73
2022/09/29 01:32:45;;;;;;;105.55;67.30;;;;;;;27.96;76.86;98218.25;4986827;28;20078;-73
2022/09/29 01:35:55;;;;;;;101.53;65.10;;;;;;;28.04;76.47;98225.63;4986704;28;20104;-74
2022/09/29 01:38:49;;;;;;;108.35;68.72;;;;;;;28.05;76.58;98223.66;4986945;28;20060;-73
2022/09/29 01:41:48;;;;;;;108.20;65.95;;;;;;;28.09;76.80;98233.69;4986110;28;20046;-74
2022/09/29 01:44:30;;;;;;;111.45;68.45;;;;;;;28.06;77.41;98230.78;4986353;28;20046;-74
2022/09/29 01:47:30;;;;;;;106.13;66.75;;;;;;;28.28;76.88;98240.63;4985809;28;20058;-72
2022/09/29 01:50:47;;;;;;;108.13;65.97;;;;;;;28.14;76.17;98242.88;4972456;28;20498;-73
2022/09/29 01:53:53;;;;;;;108.65;67.63;;;;;;;28.12;76.75;98243.22;4986569;28;20058;-73
2022/09/29 01:56:48;;;;;;;100.85;64.40;;;;;;;28.33;76.23;98254.16;4986328;28;20058;-74
2022/09/29 01:59:34;;;;;;;104.38;66.85;;;;;;;28.35;76.05;98245.56;4967114;28;20110;-73
2022/09/29 02:02:31;;;;;;;116.97;68.75;;;;;;;28.38;76.38;98245.69;4960207;28;20110;-73
2022/09/29 02:05:39;;;;;;;118.38;69.22;;;;;;;28.63;76.37;98241.00;4966819;28;20062;-73
2022/09/29 02:08:34;;;;;;;100.43;64.03;;;;;;;28.50;76.73;98253.94;4966835;28;20058;-73
2022/09/29 02:11:17;;;;;;;106.70;63.67;;;;;;;28.72;75.57;98254.69;4958625;28;20055;-73
2022/09/29 02:14:20;;;;;;;89.35;59.00;;;;;;;28.61;74.75;98259.88;4967138;28;20506;-74
2022/09/29 02:17:28;;;;;;;101.83;55.73;;;;;;;28.76;74.13;98258.38;4966764;28;20050;-74
2022/09/29 02:20:05;;;;;;;104.18;55.50;;;;;;;28.82;73.73;98261.72;4966321;28;20651;-74
2022/09/29 02:23:02;;;;;;;86.18;52.58;;;;;;;28.87;74.34;98266.97;4979927;28;20050;-74
2022/09/29 02:25:39;;;;;;;82.82;51.72;;;;;;;28.97;72.52;98261.00;4986110;28;20038;-74
2022/09/29 02:28:28;;;;;;;75.65;49.85;;;;;;;28.99;71.84;98264.22;4970841;28;20117;-74
2022/09/29 02:31:11;;;;;;;81.38;47.92;;;;;;;29.13;71.84;98269.41;4985541;28;20053;-75
2022/09/29 02:34:09;;;;;;;79.45;49.00;;;;;;;29.12;71.79;98266.97;4986408;28;20482;-74
2022/09/29 02:36:47;;;;;;;76.00;47.40;;;;;;;29.19;71.58;98267.22;4985793;28;20097;-75
2022/09/29 02:39:51;;;;;;;79.40;46.05;;;;;;;29.30;71.08;98270.31;4979940;28;20051;-75
2022/09/29 02:42:43;;;;;;;66.65;43.00;;;;;;;29.31;71.83;98263.59;4980304;28;20441;-74
2022/09/29 02:45:53;;;;;;;70.22;41.92;;;;;;;29.62;68.66;98269.28;4985237;28;20077;-73
2022/09/29 02:49:15;;;;;;;65.23;39.27;;;;;;;29.50;69.67;98276.81;4986211;28;20061;-74
2022/09/29 02:52:16;;;;;;;59.38;38.00;;;;;;;29.70;68.27;98280.56;4962337;28;20601;-74
2022/09/29 02:55:05;;;;;;;59.72;38.58;;;;;;;29.94;67.86;98274.13;4970381;28;20043;-75
2022/09/29 02:57:54;;;;;;;62.92;37.38;;;;;;;29.90;67.02;98284.28;4978966;28;20058;-74
2022/09/29 03:00:44;;;;;;;55.13;36.80;;;;;;;30.08;66.59;98280.06;4990017;28;20552;-74
2022/09/29 03:03:33;;;;;;;48.47;35.03;;;;;;;30.26;66.53;98283.28;4982233;28;20125;-74
2022/09/29 03:06:22;;;;;;;62.75;35.60;;;;;;;30.38;66.97;98290.72;4989882;28;20082;-74
2022/09/29 03:09:04;;;;;;;63.92;36.03;;;;;;;30.35;66.46;98285.94;4990014;28;20046;-74
2022/09/29 03:11:59;;;;;;;63.28;34.72;;;;;;;30.42;64.65;98288.84;4989422;28;20521;-74
2022/09/29 03:14:35;;;;;;;65.85;34.10;;;;;;;30.51;64.65;98283.16;4974669;28;20046;-75
2022/09/29 03:17:24;;;;;;;54.97;34.63;;;;;;;30.47;65.56;98285.81;4989140;28;20066;-75
2022/09/29 03:20:07;;;;;;;56.78;33.05;;;;;;;30.56;65.41;98293.97;4989692;28;20127;-75
2022/09/29 03:22:56;;;;;;;58.67;31.88;;;;;;;30.73;64.42;98290.03;4975934;28;20070;-75
2022/09/29 03:25:32;;;;;;;54.35;31.85;;;;;;;30.80;64.70;98304.88;4969739;28;20046;-74
2022/09/29 03:28:21;;;;;;;51.88;30.75;;;;;;;30.92;63.60;98300.41;4962416;28;20047;-74
2022/09/29 03:31:05;;;;;;;46.22;29.85;;;;;;;30.91;62.96;98316.22;4952819;28;20062;-75
2022/09/29 03:33:54;;;;;;;51.30;30.02;;;;;;;30.90;61.73;98303.53;4969622;28;20051;-74
2022/09/29 03:36:36;;;;;;;53.90;31.15;;;;;;;31.08;62.65;98306.72;4968360;28;20106;-75
2022/09/29 03:39:25;;;;;;;55.25;30.52;;;;;;;31.08;63.91;98308.69;4969210;28;20043;-74
2022/09/29 03:42:08;;;;;;;47.47;29.50;;;;;;;31.25;63.34;98310.28;4969487;28;20206;-72
2022/09/29 03:44:57;;;;;;;47.25;30.15;;;;;;;31.30;62.51;98321.06;4969349;28;20070;-72
2022/09/29 03:47:46;;;;;;;50.72;28.92;;;;;;;31.52;61.68;98316.84;4969173;28;20161;-73
2022/09/29 03:50:41;;;;;;;51.00;27.92;;;;;;;31.56;59.78;98318.50;4971340;28;20054;-73
2022/09/29 03:53:17;;;;;;;51.25;25.88;;;;;;;31.41;60.65;98317.38;4968776;28;20062;-72
2022/09/29 03:56:06;;;;;;;;;;;;;;;31.33;60.62;98320.34;4967453;28;20704;-72
2022/09/29 03:58:55;;;;;;;45.80;25.70;;;;;;;31.42;59.79;98318.97;4966651;28;19994;-72
2022/09/29 04:01:37;;;;;;;47.20;27.20;;;;;;;31.29;59.40;98325.81;4968907;28;20054;-72
2022/09/29 04:04:26;;;;;;;46.05;28.55;;;;;;;31.50;61.34;98324.72;4968387;28;20485;-72
2022/09/29 04:07:08;;;;;;;41.65;26.95;;;;;;;31.92;60.47;98324.81;4987711;28;20577;-71
2022/09/29 04:09:57;;;;;;;47.35;27.02;;;;;;;32.11;60.76;98321.25;4949119;29;20047;-73
2022/09/29 04:12:46;;;;;;;49.45;30.48;;;;;;;32.13;59.93;98332.78;4949631;28;20059;-72
2022/09/29 04:15:35;;;;;;;61.35;35.10;;;;;;;31.98;58.90;98323.31;4949385;28;20055;-72
2022/09/29 04:18:17;;;;;;;62.75;30.95;;;;;;;32.44;59.36;98321.84;4961929;28;20066;-73
2022/09/29 04:21:10;;;;;;;51.03;31.15;;;;;;;32.53;58.23;98322.41;4968859;28;20054;-72
2022/09/29 04:23:52;;;;;;;55.63;30.17;;;;;;;32.67;58.86;98324.66;4956944;28;20078;-71
2022/09/29 04:26:41;;;;;;;49.17;30.52;;;;;;;33.12;56.90;98323.03;4954500;28;20150;-71
2022/09/29 04:29:30;;;;;;;57.13;31.63;;;;;;;33.29;57.75;98328.03;4967975;28;20820;-71
2022/09/29 04:32:20;;;;;;;60.53;32.28;;;;;;;33.43;56.44;98329.41;4968401;28;20078;-71
2022/09/29 04:35:16;;;;;;;49.13;32.47;;;;;;;33.92;55.41;98326.50;4968880;28;20054;-70
2022/09/29 04:37:56;;;;;;;59.80;33.97;;;;;;;33.62;55.05;98328.47;4968202;28;20042;-72
2022/09/29 04:40:52;;;;;;;61.08;32.70;;;;;;;33.93;53.12;98324.50;4969037;28;20410;-72
2022/09/29 04:43:28;;;;;;;61.53;31.83;;;;;;;34.25;53.69;98321.31;4967702;28;20284;-71
2022/09/29 04:46:16;;;;;;;58.15;31.25;;;;;;;34.62;56.39;98326.03;4975352;28;20074;-71
2022/09/29 04:48:58;;;;;;;50.78;30.77;;;;;;;34.61;53.57;98327.25;4951286;28;20142;-71
2022/09/29 04:51:53;;;;;;;56.13;30.17;;;;;;;34.61;52.85;98332.81;4988206;28;20050;-72
2022/09/29 04:54:42;;;;;;;45.22;27.23;;;;;;;34.88;51.66;98336.25;4985838;28;20058;-68
2022/09/29 04:57:24;;;;;;;46.10;26.60;;;;;;;35.14;51.45;98329.69;4986177;28;20046;-70
2022/09/29 05:00:14;;;;;;;44.97;26.77;;;;;;;34.96;51.31;98332.34;4987173;28;20433;-70
2022/09/29 05:02:56;;;;;;;45.95;24.75;;;;;;;35.04;51.35;98333.19;4987259;28;20054;-71
2022/09/29 05:05:45;;;;;;;44.30;25.92;;;;;;;34.77;49.82;98325.00;4986709;28;20042;-71
2022/09/29 05:08:34;;;;;;;47.65;26.10;;;;;;;35.12;49.55;98320.88;4986673;28;20066;-71
2022/09/29 05:11:23;;;;;;;47.10;26.13;;;;;;;35.38;49.26;98322.69;4984548;28;20061;-71
2022/09/29 05:14:12;;;;;;;43.78;25.88;;;;;;;35.18;50.02;98316.59;4985875;28;20043;-70
2022/09/29 05:16:55;;;;;;;41.65;25.45;;;;;;;34.95;49.73;98318.78;4973382;28;20069;-72
2022/09/29 05:19:44;;;;;;;43.45;23.92;;;;;;;34.78;50.05;98325.81;4984753;28;20069;-71
2022/09/29 05:22:49;;;;;;;48.50;24.08;;;;;;;34.78;48.87;98321.06;4984616;28;20042;-71
2022/09/29 05:25:39;;;;;;;43.15;23.90;;;;;;;35.51;49.16;98322.38;4984704;28;20054;-69
2022/09/29 05:28:21;;;;;;;44.65;22.98;;;;;;;35.43;49.84;98313.94;4978482;28;20303;-71
2022/09/29 05:31:10;;;;;;;33.83;21.27;;;;;;;34.96;48.27;98315.59;4986840;28;20470;-71
2022/09/29 05:34:01;;;;;;;33.72;22.05;;;;;;;35.55;51.49;98318.38;4986952;28;20146;-71
2022/09/29 05:36:43;;;;;;;33.83;23.00;;;;;;;34.98;48.17;98313.22;4986200;28;20077;-70
2022/09/29 05:39:33;;;;;;;41.78;22.58;;;;;;;35.13;50.66;98313.34;4966099;28;20046;-72
2022/09/29 05:42:15;;;;;;;31.55;21.48;;;;;;;35.00;47.61;98310.06;4970191;28;20046;-71
2022/09/29 05:45:04;;;;;;;42.83;21.90;;;;;;;35.17;46.85;98309.41;4985837;28;20473;-73
2022/09/29 05:47:46;;;;;;;37.65;22.05;;;;;;;34.98;48.64;98307.66;4986370;28;20352;-70
2022/09/29 05:50:42;;;;;;;33.25;22.50;;;;;;;35.05;48.88;98302.13;4969905;28;20049;-73
2022/09/29 05:53:38;;;;;;;32.97;21.30;;;;;;;35.32;51.32;98303.94;4979762;28;20064;-72
2022/09/29 05:56:26;;;;;;;29.75;22.60;;;;;;;35.27;48.48;98305.91;4984290;28;20054;-68
2022/09/29 05:59:15;;;;;;;36.20;22.30;;;;;;;35.55;48.56;98300.84;4977315;28;20050;-68
2022/09/29 06:01:57;;;;;;;30.50;22.35;;;;;;;34.99;47.75;98291.75;4974128;28;20054;-66
2022/09/29 06:04:46;;;;;;;37.92;22.92;;;;;;;34.71;51.18;98288.34;4986596;28;20133;-68
2022/09/29 06:07:28;;;;;;;36.22;23.33;;;;;;;34.71;49.08;98299.47;4986318;28;20085;-71
2022/09/29 06:10:17;;;;;;;33.97;23.55;;;;;;;35.22;48.48;98280.34;4984268;28;20629;-70
2022/09/29 06:13:07;;;;;;;32.85;22.95;;;;;;;35.35;48.83;98290.00;4968360;28;20493;-72
2022/09/29 06:15:48;;;;;;;;;;;;;;;35.63;45.99;98282.94;4977173;28;20081;-71
2022/09/29 06:18:37;;;;;;;37.15;22.90;;;;;;;35.76;47.85;98277.84;4978323;28;19977;-71
2022/09/29 06:21:28;;;;;;;29.05;22.63;;;;;;;35.35;48.76;98272.44;4984401;28;20054;-72
2022/09/29 06:24:16;;;;;;;34.78;22.88;;;;;;;35.49;49.41;98270.53;4983479;28;20133;-73
2022/09/29 06:27:05;;;;;;;35.00;20.88;;;;;;;35.95;46.37;98271.13;4978935;28;20125;-72
2022/09/29 06:29:47;;;;;;;35.90;21.83;;;;;;;35.90;46.84;98263.91;4974899;28;20046;-71
2022/09/29 06:32:36;;;;;;;31.63;20.45;;;;;;;35.91;46.88;98253.56;4983024;28;21501;-73
2022/09/29 06:38:32;;;;;;;30.65;19.10;;;;;;;35.44;48.24;98262.50;4985350;28;20046;-70
2022/09/29 06:41:15;;;;;;;28.08;21.75;;;;;;;35.43;43.82;98248.97;4980817;28;20370;-69
2022/09/29 06:44:04;;;;;;;38.33;21.45;;;;;;;35.14;48.31;98253.56;4979166;28;20075;-69
2022/09/29 06:46:46;;;;;;;34.42;23.05;;;;;;;34.51;48.00;98250.75;4961983;28;20094;-69
2022/09/29 06:49:35;;;;;;;33.00;23.80;;;;;;;34.55;52.31;98234.84;4972816;28;20082;-68
2022/09/29 06:52:18;;;;;;;39.53;24.30;;;;;;;34.29;49.79;98238.59;4977305;28;20054;-70
2022/09/29 06:55:10;;;;;;;39.80;24.67;;;;;;;34.18;50.78;98244.06;4970992;28;20556;-71
2022/09/29 06:58:00;;;;;;;37.88;24.67;;;;;;;34.03;51.50;98231.97;4971252;28;20050;-70
2022/09/29 07:00:44;;;;;;;83.00;25.35;;;;;;;34.48;50.92;98229.22;4969989;28;20129;-73
2022/09/29 07:03:34;;;;;;;36.53;21.98;;;;;;;34.73;51.69;98229.41;4967900;28;20078;-73
2022/09/29 07:06:27;;;;;;;36.91;23.52;;;;;;;34.56;52.17;98219.72;4954175;28;10000903;-74
2022/09/29 07:09:16;;;;;;;42.17;24.60;;;;;;;34.48;50.91;98220.84;4949310;28;20261;-74
2022/09/29 07:11:59;;;;;;;34.10;24.52;;;;;;;34.53;49.26;98203.78;4975064;28;20874;-74
2022/09/29 07:14:48;;;;;;;43.88;25.83;;;;;;;35.00;51.81;98210.47;4982837;28;20051;-75
2022/09/29 07:17:30;;;;;;;39.67;24.67;;;;;;;35.19;50.79;98206.59;4965875;28;20050;-75
2022/09/29 07:20:19;;;;;;;38.45;25.08;;;;;;;35.16;48.35;98200.97;4982217;28;20117;-75
2022/09/29 07:23:01;;;;;;;42.85;24.00;;;;;;;34.77;48.12;98201.56;4984199;28;20141;-74
2022/09/29 07:25:51;;;;;;;35.10;24.30;;;;;;;35.22;49.42;98194.69;4970888;28;20057;-75
2022/09/29 07:28:34;;;;;;;33.42;22.40;;;;;;;35.49;46.30;98186.81;4984944;28;20053;-74
2022/09/29 07:31:26;;;;;;;30.58;22.73;;;;;;;35.71;48.38;98189.66;4991743;28;20061;-70
2022/09/29 07:34:10;;;;;;;35.63;24.83;;;;;;;35.43;46.58;98180.00;4981795;28;20084;-75
2022/09/29 07:36:59;;;;;;;35.75;25.27;;;;;;;35.44;46.50;98173.22;4982742;28;20121;-76
2022/09/29 07:39:48;;;;;;;34.08;23.85;;;;;;;35.43;44.40;98171.63;4985081;28;20109;-74
2022/09/29 07:42:37;;;;;;;35.35;24.02;;;;;;;35.61;48.99;98170.88;4984042;28;20149;-75
2022/09/29 07:45:20;;;;;;;44.38;24.80;;;;;;;35.38;45.87;98160.84;4982964;28;20800;-74
2022/09/29 07:48:09;;;;;;;38.17;24.65;;;;;;;35.04;46.26;98155.50;4983581;28;20159;-74
2022/09/29 07:50:51;;;;;;;33.00;23.52;;;;;;;34.84;48.14;98152.22;4983511;28;20125;-75
2022/09/29 07:53:41;;;;;;;50.28;25.35;;;;;;;34.69;47.82;98144.97;4984338;28;20581;-74
2022/09/29 07:56:23;;;;;;;34.08;22.48;;;;;;;34.67;47.76;98150.16;4980541;28;20126;-73
2022/09/29 07:59:12;;;;;;;31.77;22.95;;;;;;;34.71;47.48;98139.81;4985417;28;20066;-74
2022/09/29 08:01:54;;;;;;;36.60;23.80;;;;;;;34.88;45.78;98136.31;4983425;28;20050;-72
2022/09/29 08:04:43;;;;;;;33.35;22.63;;;;;;;34.68;48.13;98137.78;4983883;28;20046;-74
2022/09/29 08:07:25;;;;;;;37.22;23.50;;;;;;;34.70;51.72;98127.88;4984053;28;20061;-73
2022/09/29 08:10:14;;;;;;;36.95;22.67;;;;;;;34.63;52.92;98129.78;4965529;28;20051;-74
2022/09/29 08:12:57;;;;;;;34.97;23.70;;;;;;;34.76;49.28;98119.94;4966445;28;20078;-74
2022/09/29 08:15:46;;;;;;;34.90;23.23;;;;;;;34.90;48.45;98116.41;4974619;28;20562;-73
2022/09/29 08:18:35;;;;;;;41.17;23.17;;;;;;;35.12;47.61;98120.06;4990736;28;20548;-73
2022/09/29 08:21:24;;;;;;;32.78;23.88;;;;;;;35.37;47.78;98116.59;4984913;28;20074;-75
2022/09/29 08:24:07;;;;;;;29.83;23.38;;;;;;;35.27;46.17;98113.41;4984962;28;20058;-76
2022/09/29 08:26:56;;;;;;;28.77;23.50;;;;;;;35.31;45.17;98105.03;4990650;28;20745;-74
2022/09/29 08:29:43;;;;;;;34.15;23.05;;;;;;;35.27;44.49;98102.25;4984989;28;20065;-73
2022/09/29 08:32:32;;;;;;;38.83;23.35;;;;;;;35.35;46.58;98099.47;4990610;28;20046;-74
2022/09/29 08:35:14;;;;;;;31.20;23.65;;;;;;;35.33;44.96;98096.28;4988457;28;20085;-73
2022/09/29 08:38:04;;;;;;;34.47;23.35;;;;;;;35.18;45.61;98092.63;4984440;28;20102;-72
2022/09/29 08:41:07;;;;;;;33.83;23.33;;;;;;;35.07;46.99;98093.38;4971207;28;20066;-72
2022/09/29 08:43:44;;;;;;;40.35;23.42;;;;;;;34.99;48.36;98085.41;4968298;28;20050;-73
2022/09/29 08:46:56;;;;;;;29.45;21.08;;;;;;;35.08;47.48;98078.25;4984447;28;20620;-73
2022/09/29 08:49:57;;;;;;;33.17;22.42;;;;;;;35.28;46.28;98069.56;4986396;28;20047;-72
2022/09/29 08:53:01;;;;;;;38.17;20.98;;;;;;;35.58;46.38;98072.00;4986431;28;20140;-70
2022/09/29 08:56:02;;;;;;;28.65;20.35;;;;;;;35.33;44.09;98060.00;4985453;28;20045;-70
2022/09/29 08:58:51;;;;;;;28.75;19.67;;;;;;;35.26;44.08;98064.38;4986007;28;20050;-68
2022/09/29 09:01:58;;;;;;;29.85;20.52;;;;;;;35.20;45.45;98057.59;4988294;28;20061;-70
2022/09/29 09:05:30;;;;;;;30.33;19.88;;;;;;;35.13;46.34;98051.97;4985489;28;20050;-70
2022/09/29 09:08:11;;;;;;;36.72;21.13;;;;;;;35.17;46.73;98049.19;4990148;28;20054;-71
2022/09/29 09:11:19;;;;;;;45.35;21.27;;;;;;;35.14;46.77;98042.41;4989215;28;20131;-71
2022/09/29 09:14:22;;;;;;;34.55;20.45;;;;;;;34.95;46.18;98039.94;4990436;28;20046;-70
2022/09/29 09:17:31;;;;;;;33.30;20.80;;;;;;;34.96;47.81;98041.56;4989461;28;20073;-74
2022/09/29 09:20:09;;;;;;;30.17;20.95;;;;;;;35.02;46.36;98035.19;4980993;28;20054;-70
2022/09/29 09:23:01;;;;;;;36.78;21.23;;;;;;;35.17;48.46;98027.69;4980534;28;20054;-73
2022/09/29 09:25:55;;;;;;;33.38;21.45;;;;;;;34.94;46.91;98030.00;4981097;28;20493;-75
2022/09/29 09:29:00;;;;;;;34.50;20.98;;;;;;;35.07;45.66;98025.66;4979185;28;20050;-70
2022/09/29 09:31:43;;;;;;;37.90;21.90;;;;;;;35.00;45.54;98020.84;4978722;28;20069;-70
2022/09/29 09:35:05;;;;;;;28.70;21.10;;;;;;;35.11;47.54;98012.53;4978856;28;20053;-74
2022/09/29 09:38:01;;;;;;;32.20;21.48;;;;;;;34.82;47.96;98011.66;4981130;28;20054;-73
2022/09/29 09:40:54;;;;;;;42.78;20.30;;;;;;;35.29;47.67;98009.78;4965081;28;20128;-72
2022/09/29 09:43:43;;;;;;;32.42;19.98;;;;;;;35.18;45.13;98004.19;4981472;28;20360;-76
2022/09/29 09:46:48;;;;;;;31.70;20.83;;;;;;;35.29;45.99;97996.66;4981217;28;20042;-71
2022/09/29 09:49:31;;;;;;;27.58;19.52;;;;;;;35.29;45.20;97996.66;4982860;28;20064;-71
2022/09/29 09:52:32;;;;;;;28.65;21.38;;;;;;;34.93;44.34;97992.16;4985795;28;20049;-74
2022/09/29 09:55:17;;;;;;;31.08;20.75;;;;;;;35.12;45.20;97985.41;4955610;28;20049;-72
2022/09/29 09:58:12;;;;;;;32.85;19.27;;;;;;;35.02;45.87;97992.56;4991137;28;20073;-69
2022/09/29 10:01:12;;;;;;;28.67;19.92;;;;;;;34.84;45.73;97990.53;4981447;28;20054;-73
2022/09/29 10:03:56;;;;;;;28.65;20.15;;;;;;;34.49;45.81;97989.22;4983356;28;20046;-74
2022/09/29 10:06:46;;;;;;;27.88;19.77;;;;;;;33.83;45.49;97993.97;4984795;28;20061;-69
2022/09/29 10:09:28;;;;;;;;;;;;;;;34.31;45.73;97989.13;5002762;28;20072;-72
2022/09/29 10:12:28;;;;;;;24.10;18.00;;;;;;;34.75;45.42;97987.34;5002319;28;19933;-75
2022/09/29 10:15:16;;;;;;;23.50;18.30;;;;;;;34.54;46.29;97992.81;5000133;28;20449;-73
2022/09/29 10:18:17;;;;;;;26.73;19.45;;;;;;;34.47;47.72;97977.66;4983474;28;20061;-70
2022/09/29 10:21:42;;;;;;;29.38;19.45;;;;;;;34.39;47.43;97984.38;4984350;28;20054;-74
2022/09/29 10:24:36;;;;;;;28.20;17.60;;;;;;;34.52;46.61;97973.69;4936616;28;20044;-75
2022/09/29 10:27:21;;;;;;;26.60;17.00;;;;;;;34.52;45.89;97970.91;4982672;28;20493;-76
2022/09/29 10:30:10;;;;;;;27.88;17.67;;;;;;;34.37;45.66;97972.81;4975602;28;20078;-72
2022/09/29 10:32:46;;;;;;;30.05;17.88;;;;;;;34.54;45.45;97976.09;4975079;28;20046;-73
2022/09/29 10:35:40;;;;;;;27.85;17.77;;;;;;;34.63;46.76;97974.53;4981119;28;20079;-73
2022/09/29 10:38:31;;;;;;;32.38;17.40;;;;;;;34.25;46.80;97976.75;4976557;28;20046;-72
2022/09/29 10:41:20;;;;;;;25.88;18.20;;;;;;;34.44;47.84;97972.06;4974747;28;20051;-71
2022/09/29 10:44:26;;;;;;;25.50;17.40;;;;;;;34.50;46.41;97971.28;4958393;28;20051;-72
2022/09/29 10:47:14;;;;;;;26.77;17.70;;;;;;;34.34;47.01;97968.06;4982342;28;20054;-69
2022/09/29 10:50:18;;;;;;;25.77;16.55;;;;;;;34.48;47.34;97970.09;4980348;28;20061;-72
2022/09/29 10:53:16;;;;;;;23.77;17.17;;;;;;;34.29;46.74;97972.00;4961745;28;20846;-72
2022/09/29 10:56:21;;;;;;;31.27;16.50;;;;;;;34.34;46.88;97973.63;4962847;28;20043;-73
2022/09/29 10:59:11;;;;;;;23.77;17.50;;;;;;;34.13;47.57;97974.28;4963035;28;20055;-72
2022/09/29 11:01:58;;;;;;;22.98;16.55;;;;;;;34.05;46.95;97962.31;4960500;28;20550;-72
2022/09/29 11:04:47;;;;;;;24.20;16.42;;;;;;;34.37;47.63;97966.47;4962841;28;20210;-73
2022/09/29 11:07:30;;;;;;;22.13;15.95;;;;;;;34.41;46.97;97962.50;4965338;28;20089;-72
2022/09/29 11:10:43;;;;;;;25.88;16.67;;;;;;;34.41;47.47;97968.06;4966250;28;20142;-71
2022/09/29 11:13:18;;;;;;;28.27;17.60;;;;;;;34.32;48.23;97967.66;4969176;28;20054;-72
2022/09/29 11:16:19;;;;;;;20.63;14.80;;;;;;;34.29;47.81;97971.19;4966843;28;20134;-72
2022/09/29 11:19:00;;;;;;;23.45;16.45;;;;;;;34.26;47.66;97971.97;4972283;28;20478;-71
2022/09/29 11:22:24;;;;;;;20.88;15.40;;;;;;;34.20;47.70;97973.53;4979701;28;20050;-72
2022/09/29 11:25:14;;;;;;;25.98;16.48;;;;;;;33.86;48.20;97977.31;4976993;28;20093;-72
2022/09/29 11:28:20;;;;;;;26.55;16.00;;;;;;;33.81;49.06;97972.09;4987260;28;20097;-71
2022/09/29 11:31:30;;;;;;;27.15;15.23;;;;;;;33.81;49.31;97968.53;4979184;28;20058;-72
2022/09/29 11:34:42;;;;;;;26.60;15.18;;;;;;;33.87;48.46;97967.75;4971780;28;20133;-71
2022/09/29 11:37:43;;;;;;;30.92;16.10;;;;;;;34.00;48.29;97975.81;4981000;28;20050;-73
2022/09/29 11:40:31;;;;;;;23.38;15.43;;;;;;;34.06;47.75;97972.25;4970155;28;20061;-70
2022/09/29 11:43:46;;;;;;;27.13;16.02;;;;;;;34.10;48.61;97975.84;4953507;28;20097;-76
2022/09/29 11:46:52;;;;;;;25.02;15.35;;;;;;;33.98;48.25;97973.41;4968051;28;20134;-75
2022/09/29 11:49:58;;;;;;;27.55;15.80;;;;;;;33.92;48.53;97974.97;4968473;28;20066;-75
2022/09/29 11:53:44;;;;;;;26.40;15.35;;;;;;;33.78;49.00;97969.28;4985378;28;20049;-75
2022/09/29 11:56:33;;;;;;;31.25;16.02;;;;;;;33.72;48.81;97971.63;4951471;28;20122;-77
2022/09/29 11:59:44;;;;;;;24.55;14.68;;;;;;;33.85;48.44;97969.34;4988627;28;20062;-74
2022/09/29 12:02:29;;;;;;;22.27;13.95;;;;;;;33.82;47.95;97975.66;4988235;28;20089;-75
2022/09/29 12:05:30;;;;;;;31.45;14.55;;;;;;;33.86;48.51;97973.69;4994391;28;20869;-69
2022/09/29 12:08:47;;;;;;;28.42;14.75;;;;;;;33.79;48.93;97984.81;4992088;28;20058;-73
2022/09/29 12:11:39;;;;;;;27.53;15.20;;;;;;;33.67;48.79;97983.09;4641762;28;9999790;-74
2022/09/29 12:15:33;;;;;;;21.85;14.27;;;;;;;33.71;49.00;97984.75;4988212;28;20404;-77
2022/09/29 12:18:19;;;;;;;25.13;15.07;;;;;;;33.54;49.54;97979.81;4987561;28;20359;-71
2022/09/29 12:21:17;;;;;;;26.88;14.25;;;;;;;33.47;49.56;97982.53;4988900;28;20054;-72
2022/09/29 12:23:56;;;;;;;20.05;15.05;;;;;;;33.51;48.62;97989.72;4985063;28;20042;-72
2022/09/29 12:26:55;;;;;;;24.17;15.43;;;;;;;33.51;50.17;97980.59;4967875;28;20062;-73
2022/09/29 12:29:37;;;;;;;37.65;16.02;;;;;;;33.33;50.44;97991.56;4985592;28;20079;-71
2022/09/29 12:32:34;;;;;;;23.70;15.20;;;;;;;33.16;51.41;97984.66;4985784;28;20153;-72
2022/09/29 12:35:39;;;;;;;25.00;15.27;;;;;;;33.12;50.16;97984.63;4979208;28;20637;-74
2022/09/29 12:38:33;;;;;;;19.30;14.38;;;;;;;33.08;50.79;97988.53;4984599;28;20097;-73
2022/09/29 12:41:26;;;;;;;28.70;15.18;;;;;;;33.05;50.64;97989.28;4983659;28;20109;-73
2022/09/29 12:44:24;;;;;;;30.63;15.60;;;;;;;33.07;49.78;97992.47;4984244;28;20461;-72
2022/09/29 12:47:42;;;;;;;29.85;16.27;;;;;;;32.73;50.81;97995.28;4987935;28;20145;-72
2022/09/29 12:50:48;;;;;;;28.33;15.70;;;;;;;32.55;50.83;97992.25;4987477;28;20529;-76
2022/09/29 12:54:08;;;;;;;36.25;16.48;;;;;;;32.27;52.75;97996.25;4967708;28;20390;-73
2022/09/29 12:57:04;;;;;;;26.80;15.98;;;;;;;32.21;52.93;97997.78;4951202;28;20051;-74
2022/09/29 12:59:51;;;;;;;23.58;15.38;;;;;;;32.21;52.57;97996.97;4964455;28;20184;-70
2022/09/29 13:03:16;;;;;;;33.80;17.27;;;;;;;32.37;52.43;97994.84;4948911;28;20059;-68
2022/09/29 13:06:17;;;;;;;27.20;15.27;;;;;;;32.24;52.83;97999.03;4948914;28;20050;-68
2022/09/29 13:09:23;;;;;;;28.02;15.77;;;;;;;32.26;52.76;98000.22;4932126;29;20097;-69
2022/09/29 13:12:14;;;;;;;25.63;15.10;;;;;;;32.21;52.54;97996.97;4951542;28;20096;-70
2022/09/29 13:15:24;;;;;;;26.75;14.77;;;;;;;32.08;54.11;98002.78;4967998;28;20483;-71